createdAt,value
2022-08-16T00:00:20.283Z,0.35
2022-08-16T00:03:17.256Z,0.2
2022-08-16T00:06:17.317Z,0.72
2022-08-16T00:09:17.274Z,0.46
2022-08-16T00:12:17.848Z,0.29
2022-08-16T00:15:17.345Z,0.45
2022-08-16T00:18:17.276Z,0.5
2022-08-16T00:21:17.322Z,0.4
2022-08-16T00:24:31.453Z,0.34
2022-08-16T00:27:17.594Z,0.36
2022-08-16T00:30:19.337Z,0.53
2022-08-16T00:33:17.302Z,0.41
2022-08-16T00:36:17.326Z,0.31
2022-08-16T00:39:17.301Z,0.5
2022-08-16T00:42:29.898Z,0.54
2022-08-16T00:45:17.325Z,0.52
2022-08-16T00:48:28.894Z,0.54
2022-08-16T00:51:17.584Z,0.61
2022-08-16T00:54:17.395Z,0.48
2022-08-16T00:57:17.331Z,0.48
2022-08-16T01:00:19.195Z,0.59
2022-08-16T01:03:17.335Z,0.45
2022-08-16T01:06:32.959Z,0.47
2022-08-16T01:09:18.346Z,0.5
2022-08-16T01:12:26.405Z,0.46
2022-08-16T01:15:17.317Z,0.47
2022-08-16T01:18:19.313Z,0.59
2022-08-16T01:21:22.275Z,0.45
2022-08-16T01:24:45.278Z,0.38
2022-08-16T01:27:17.461Z,0.54
2022-08-16T01:30:19.881Z,0.63
2022-08-16T01:33:17.347Z,0.39
2022-08-16T01:36:17.389Z,0.38
2022-08-16T01:39:17.349Z,0.4
2022-08-16T01:42:17.901Z,0.44
2022-08-16T01:45:19.553Z,0.37
2022-08-16T01:48:19.340Z,0.58
2022-08-16T01:51:17.463Z,0.42
2022-08-16T01:54:17.358Z,0.69
2022-08-16T01:57:17.380Z,0.64
2022-08-16T02:00:18.909Z,0.57
2022-08-16T02:03:17.389Z,0.57
2022-08-16T02:06:17.369Z,0.51
2022-08-16T02:09:17.729Z,0.53
2022-08-16T02:12:39.546Z,0.58
2022-08-16T02:15:17.394Z,0.57
2022-08-16T02:18:17.424Z,0.61
2022-08-16T02:21:17.411Z,0.57
2022-08-16T02:24:31.675Z,0.61
2022-08-16T02:27:17.415Z,0.68
2022-08-16T02:30:36.114Z,0.59
2022-08-16T02:33:17.404Z,0.59
2022-08-16T02:36:47.085Z,0.48
2022-08-16T02:39:17.399Z,0.38
2022-08-16T02:42:19.195Z,0.31
2022-08-16T02:45:17.397Z,0.24
2022-08-16T02:48:28.800Z,0.41
2022-08-16T02:51:17.438Z,0.36
2022-08-16T02:54:17.405Z,0.5
2022-08-16T02:57:17.450Z,0.51
2022-08-16T03:00:32.343Z,0.54
2022-08-16T03:03:17.559Z,0.56
2022-08-16T03:06:39.212Z,0.39
2022-08-16T03:09:17.431Z,0.47
2022-08-16T03:12:17.793Z,0.31
2022-08-16T03:15:17.431Z,0.19
2022-08-16T03:18:18.792Z,0.12
2022-08-16T03:21:18.378Z,0.02
2022-08-16T03:24:27.842Z,0
2022-08-16T03:27:17.493Z,0
2022-08-16T03:30:18.139Z,0
2022-08-16T03:33:17.469Z,0.13
2022-08-16T03:36:20.071Z,0.32
2022-08-16T03:39:20.146Z,0.44
2022-08-16T03:42:20.358Z,0.32
2022-08-16T03:45:17.498Z,0.31
2022-08-16T03:48:18.109Z,0.24
2022-08-16T03:51:17.514Z,0.08
2022-08-16T03:54:17.500Z,0.28
2022-08-16T03:57:17.466Z,0.48
2022-08-16T04:00:20.856Z,0.48
2022-08-16T04:03:18.619Z,0.47
2022-08-16T04:06:17.509Z,0.65
2022-08-16T04:09:17.534Z,0.69
2022-08-16T04:12:52.534Z,0.79
2022-08-16T04:15:17.520Z,0.7
2022-08-16T04:18:17.537Z,0.62
2022-08-16T04:21:24.455Z,0.66
2022-08-16T04:24:17.549Z,0.69
2022-08-16T04:27:17.510Z,0.59
2022-08-16T04:30:32.533Z,0.6
2022-08-16T04:33:17.551Z,0.58
2022-08-16T04:36:19.703Z,0.55
2022-08-16T04:39:17.542Z,0.49
2022-08-16T04:42:17.654Z,0.41
2022-08-16T04:45:17.747Z,0.47
2022-08-16T04:48:21.948Z,0.37
2022-08-16T04:51:17.548Z,0.23
2022-08-16T04:54:19.408Z,0.09
2022-08-16T04:57:17.542Z,0.07
2022-08-16T05:00:25.227Z,0.11
2022-08-16T05:03:17.562Z,0.23
2022-08-16T05:06:17.556Z,0.14
2022-08-16T05:09:17.558Z,0.21
2022-08-16T05:12:18.331Z,0.17
2022-08-16T05:15:17.577Z,0.29
2022-08-16T05:18:19.886Z,0.31
2022-08-16T05:21:17.581Z,0.18
2022-08-16T05:24:22.237Z,0.63
2022-08-16T05:27:17.576Z,0.49
2022-08-16T05:30:35.396Z,0.42
2022-08-16T05:33:18.207Z,0.44
2022-08-16T05:36:17.554Z,0.48
2022-08-16T05:39:17.582Z,0.64
2022-08-16T05:42:19.673Z,0.64
2022-08-16T05:45:21.514Z,0.18
2022-08-16T05:48:17.959Z,0.5
2022-08-16T05:51:35.159Z,0.31
2022-08-16T05:54:17.563Z,0.2
2022-08-16T05:57:17.637Z,0.19
2022-08-16T06:00:22.475Z,0.01
2022-08-16T06:03:17.645Z,0.06
2022-08-16T06:06:27.837Z,0.03
2022-08-16T06:09:17.602Z,0.11
2022-08-16T06:12:26.500Z,0.26
2022-08-16T06:15:17.628Z,0.04
2022-08-16T06:18:17.622Z,0.02
2022-08-16T06:21:22.483Z,0.14
2022-08-16T06:24:53.068Z,0.32
2022-08-16T06:27:17.648Z,0.37
2022-08-16T06:30:19.569Z,0.26
2022-08-16T06:33:19.589Z,0.33
2022-08-16T06:36:17.611Z,0.58
2022-08-16T06:39:17.648Z,0.25
2022-08-16T06:42:18.218Z,0.34
2022-08-16T06:45:17.656Z,0.31
2022-08-16T06:48:18.813Z,0.11
2022-08-16T06:51:17.636Z,0.52
2022-08-16T06:54:17.662Z,0.52
2022-08-16T06:57:17.646Z,0.43
2022-08-16T07:00:24.511Z,0.32
2022-08-16T07:03:27.314Z,0.45
2022-08-16T07:06:17.661Z,0.06
2022-08-16T07:09:17.682Z,0.39
2022-08-16T07:12:17.642Z,0.16
2022-08-16T07:15:18.670Z,0.19
2022-08-16T07:18:17.722Z,0.52
2022-08-16T07:21:17.774Z,0.38
2022-08-16T07:24:30.674Z,0.59
2022-08-16T07:27:17.706Z,0.59
2022-08-16T07:30:38.094Z,0.52
2022-08-16T07:33:20.290Z,0.69
2022-08-16T07:36:21.627Z,0.94
2022-08-16T07:39:17.714Z,0.83
2022-08-16T07:42:19.994Z,0.47
2022-08-16T07:45:17.702Z,0.48
2022-08-16T07:48:17.729Z,0.49
2022-08-16T07:51:17.711Z,0.7
2022-08-16T07:54:21.017Z,0.45
2022-08-16T07:57:18.926Z,0.29
2022-08-16T08:00:18.379Z,0.29
2022-08-16T08:03:17.831Z,0.21
2022-08-16T08:06:17.725Z,0.59
2022-08-16T08:09:17.746Z,0.7
2022-08-16T08:12:31.740Z,0.74
2022-08-16T08:15:25.054Z,0.6
2022-08-16T08:18:20.976Z,0.46
2022-08-16T08:21:17.735Z,0.4
2022-08-16T08:24:17.762Z,0.48
2022-08-16T08:27:22.376Z,0.49
2022-08-16T08:30:50.729Z,0.47
2022-08-16T08:33:17.751Z,0.27
2022-08-16T08:36:21.877Z,0.33
2022-08-16T08:39:20.778Z,0.3
2022-08-16T08:42:17.750Z,0.34
2022-08-16T08:45:36.195Z,0.17
2022-08-16T08:48:34.494Z,0.05
2022-08-16T08:51:17.771Z,0.04
2022-08-16T08:54:18.738Z,0.06
2022-08-16T08:57:17.746Z,0.26
2022-08-16T09:00:21.244Z,0.28
2022-08-16T09:03:17.758Z,0.28
2022-08-16T09:06:18.509Z,0.29
2022-08-16T09:09:17.793Z,0.7
2022-08-16T09:12:30.298Z,0.46
2022-08-16T09:15:17.791Z,0.34
2022-08-16T09:18:24.664Z,0.22
2022-08-16T09:21:17.752Z,0.21
2022-08-16T09:24:19.925Z,0.07
2022-08-16T09:27:17.804Z,0.12
2022-08-16T09:30:33.223Z,0.48
2022-08-16T09:33:17.861Z,0.41
2022-08-16T09:36:32.532Z,0.4
2022-08-16T09:39:17.821Z,0.06
2022-08-16T09:42:18.977Z,0.17
2022-08-16T09:45:18.463Z,0.19
2022-08-16T09:48:34.652Z,0.15
2022-08-16T09:51:17.806Z,0.19
2022-08-16T09:54:20.764Z,0.54
2022-08-16T09:57:17.831Z,0.27
2022-08-16T10:00:19.624Z,0.13
2022-08-16T10:03:17.850Z,0.35
2022-08-16T10:06:17.837Z,0.75
2022-08-16T10:09:17.813Z,0.5
2022-08-16T10:12:19.828Z,0.31
2022-08-16T10:15:17.890Z,0.28
2022-08-16T10:18:41.368Z,0.35
2022-08-16T10:21:17.813Z,0.7
2022-08-16T10:24:27.115Z,0.44
2022-08-16T10:27:27.419Z,0.45
2022-08-16T10:30:25.481Z,0.24
2022-08-16T10:33:17.873Z,0.2
2022-08-16T10:36:37.941Z,0.23
2022-08-16T10:39:17.878Z,0.19
2022-08-16T10:42:17.860Z,0.08
2022-08-16T10:45:17.884Z,0.2
2022-08-16T10:48:23.903Z,0.49
2022-08-16T10:51:17.881Z,0.17
2022-08-16T10:54:21.253Z,0.11
2022-08-16T10:57:17.856Z,0.17
2022-08-16T11:00:19.116Z,0.04
2022-08-16T11:06:17.902Z,0.07
2022-08-16T11:09:21.194Z,0
2022-08-16T11:12:17.897Z,0.21
2022-08-16T11:15:18.205Z,0.26
2022-08-16T11:18:48.154Z,0.39
2022-08-16T11:21:28.380Z,0.32
2022-08-16T11:24:40.463Z,0.43
2022-08-16T11:27:18.834Z,0.3
2022-08-16T11:30:19.794Z,0.39
2022-08-16T11:33:18.231Z,0.11
2022-08-16T11:36:28.076Z,0.45
2022-08-16T11:39:17.913Z,0.52
2022-08-16T11:42:23.257Z,0.45
2022-08-16T11:45:17.904Z,0.14
2022-08-16T11:48:17.918Z,0.27
2022-08-16T11:51:17.927Z,0.43
2022-08-16T11:54:20.269Z,0.17
2022-08-16T11:57:17.936Z,0.54
2022-08-16T12:00:33.268Z,0.82
2022-08-16T12:03:17.946Z,0.74
2022-08-16T12:06:24.720Z,0.68
2022-08-16T12:09:17.962Z,0.74
2022-08-16T12:12:18.567Z,0.7
2022-08-16T12:15:17.948Z,0.36
2022-08-16T12:18:20.798Z,0.48
2022-08-16T12:21:17.985Z,0.54
2022-08-16T12:24:17.966Z,0.03
2022-08-16T12:27:17.938Z,0.66
2022-08-16T12:30:21.415Z,0.68
2022-08-16T12:33:25.356Z,0.78
2022-08-16T12:36:17.942Z,0.71
2022-08-16T12:39:18.006Z,0.78
2022-08-16T12:42:17.946Z,0.32
2022-08-16T12:45:17.989Z,0.59
2022-08-16T12:48:34.050Z,0.64
2022-08-16T12:51:20.127Z,0.31
2022-08-16T12:54:18.016Z,0.21
2022-08-16T12:57:18.014Z,0.24
2022-08-16T13:00:26.446Z,0.67
2022-08-16T13:03:18.021Z,0.61
2022-08-16T13:06:19.860Z,0.68
2022-08-16T13:09:18.008Z,0.61
2022-08-16T13:12:18.006Z,0.31
2022-08-16T13:15:17.982Z,0.1
2022-08-16T13:18:24.375Z,0.23
2022-08-16T13:21:18.042Z,0.64
2022-08-16T13:24:17.975Z,0.58
2022-08-16T13:27:18.043Z,0.64
2022-08-16T13:30:22.078Z,0.93
2022-08-16T13:33:26.223Z,0.58
2022-08-16T13:36:48.339Z,0.39
2022-08-16T13:39:18.048Z,0.22
2022-08-16T13:42:18.088Z,0.33
2022-08-16T13:45:19.400Z,0.37
2022-08-16T13:48:19.370Z,0.53
2022-08-16T13:51:18.522Z,0.65
2022-08-16T13:57:18.073Z,0.33
2022-08-16T14:00:19.313Z,0.96
2022-08-16T14:03:18.342Z,0.91
2022-08-16T14:06:18.587Z,1.58
2022-08-16T14:09:20.117Z,0.6
2022-08-16T14:12:18.264Z,0.38
2022-08-16T14:15:18.071Z,0.59
2022-08-16T14:18:19.957Z,0.46
2022-08-16T14:21:18.084Z,0.81
2022-08-16T14:24:22.603Z,0.56
2022-08-16T14:27:18.116Z,0.47
2022-08-16T14:30:18.101Z,0.59
2022-08-16T14:33:18.085Z,0.54
2022-08-16T14:36:18.592Z,1.19
2022-08-16T14:39:18.076Z,0.82
2022-08-16T14:42:18.094Z,0.95
2022-08-16T14:45:18.101Z,1.56
2022-08-16T14:48:21.658Z,1.21
2022-08-16T14:51:18.108Z,1.16
2022-08-16T14:54:18.117Z,0.8
2022-08-16T14:57:18.138Z,0.46
2022-08-16T15:00:18.162Z,0.67
2022-08-16T15:03:18.157Z,0.59
2022-08-16T15:06:18.086Z,0.36
2022-08-16T15:09:18.101Z,0.63
2022-08-16T15:12:26.431Z,0.99
2022-08-16T15:15:18.078Z,0.65
2022-08-16T15:18:23.125Z,1.34
2022-08-16T15:21:18.091Z,0.87
2022-08-16T15:24:22.223Z,0.78
2022-08-16T15:27:18.142Z,0.44
2022-08-16T15:30:48.325Z,0.42
2022-08-16T15:33:18.138Z,0.96
2022-08-16T15:36:18.233Z,1.23
2022-08-16T15:39:24.574Z,1.26
2022-08-16T15:42:27.593Z,0.98
2022-08-16T15:45:18.156Z,0.85
2022-08-16T15:48:18.122Z,1.01
2022-08-16T15:51:18.112Z,0.81
2022-08-16T15:54:29.519Z,0.52
2022-08-16T15:57:18.110Z,0.87
2022-08-16T16:00:18.161Z,0.87
2022-08-16T16:03:18.133Z,0.78
2022-08-16T16:06:18.172Z,0.62
2022-08-16T16:09:18.178Z,0.46
2022-08-16T16:12:44.010Z,0.74
2022-08-16T16:15:18.186Z,0.57
2022-08-16T16:18:18.158Z,0.79
2022-08-16T16:21:20.266Z,0.89
2022-08-16T16:24:21.673Z,1.29
2022-08-16T16:27:18.159Z,1.15
2022-08-16T16:30:33.655Z,1.07
2022-08-16T16:33:20.733Z,1.02
2022-08-16T16:36:18.182Z,0.73
2022-08-16T16:39:18.181Z,0.63
2022-08-16T16:42:25.571Z,0.79
2022-08-16T16:45:18.212Z,0.82
2022-08-16T16:48:18.207Z,0.73
2022-08-16T16:51:18.191Z,0.56
2022-08-16T16:54:22.386Z,0.36
2022-08-16T16:57:18.195Z,0.34
2022-08-16T17:00:25.906Z,0.47
2022-08-16T17:03:18.240Z,0.41
2022-08-16T17:06:18.188Z,0.54
2022-08-16T17:09:18.210Z,0.66
2022-08-16T17:12:23.711Z,0.6
2022-08-16T17:15:20.697Z,0.52
2022-08-16T17:19:16.012Z,0.51
2022-08-16T17:21:18.216Z,0.53
2022-08-16T17:24:19.812Z,0.42
2022-08-16T17:27:18.393Z,0.39
2022-08-16T17:30:18.233Z,0.47
2022-08-16T17:33:18.256Z,0.4
2022-08-16T17:39:18.282Z,0.11
2022-08-16T17:39:27.910Z,0.17
2022-08-16T17:42:18.243Z,0.16
2022-08-16T17:45:18.221Z,0.12
2022-08-16T17:48:18.281Z,0.17
2022-08-16T17:51:18.248Z,0.04
2022-08-16T17:54:20.268Z,0.1
2022-08-16T17:57:18.271Z,0.04
2022-08-16T18:00:20.323Z,0.03
2022-08-16T18:03:18.249Z,0.06
2022-08-16T18:06:18.532Z,0.13
2022-08-16T18:09:18.312Z,0.03
2022-08-16T18:12:19.831Z,0.06
2022-08-16T18:15:18.266Z,0.13
2022-08-16T18:18:18.313Z,0.13
2022-08-16T18:21:18.309Z,0.06
2022-08-16T18:24:18.302Z,0.17
2022-08-16T18:27:25.731Z,0.06
2022-08-16T18:30:18.292Z,0.16
2022-08-16T18:33:18.324Z,0.16
2022-08-16T18:36:20.370Z,0.1
2022-08-16T18:39:18.310Z,0
2022-08-16T18:42:18.286Z,0.11
2022-08-16T18:45:18.427Z,0.11
2022-08-16T18:48:18.337Z,0.13
2022-08-16T18:51:21.660Z,0.14
2022-08-16T18:54:18.537Z,0.09
2022-08-16T18:57:18.297Z,0.16
2022-08-16T19:00:18.332Z,0.21
2022-08-16T19:03:18.322Z,0.15
2022-08-16T19:06:18.339Z,0.13
2022-08-16T19:09:18.339Z,0.19
2022-08-16T19:12:37.449Z,0.18
2022-08-16T19:15:18.339Z,0.15
2022-08-16T19:18:18.339Z,0.12
2022-08-16T19:21:18.678Z,0.22
2022-08-16T19:24:18.592Z,0.09
2022-08-16T19:27:18.343Z,0.19
2022-08-16T19:30:18.384Z,0.36
2022-08-16T19:33:18.323Z,0.18
2022-08-16T19:36:30.784Z,0.21
2022-08-16T19:39:18.380Z,0.11
2022-08-16T19:42:18.397Z,0.16
2022-08-16T19:45:18.334Z,0.13
2022-08-16T19:48:18.387Z,0.14
2022-08-16T19:51:18.363Z,0.18
2022-08-16T19:54:19.317Z,0.16
2022-08-16T19:57:18.428Z,0.15
2022-08-16T20:00:18.378Z,0.18
2022-08-16T20:03:18.481Z,0.2
2022-08-16T20:06:32.286Z,0.12
2022-08-16T20:09:19.291Z,0.55
2022-08-16T20:12:18.573Z,0.45
2022-08-16T20:15:20.476Z,0.36
2022-08-16T20:18:21.429Z,0.34
2022-08-16T20:21:18.409Z,0.28
2022-08-16T20:24:35.460Z,0.14
2022-08-16T20:27:18.455Z,0.12
2022-08-16T20:30:18.667Z,0.14
2022-08-16T20:33:18.569Z,0.26
2022-08-16T20:36:18.459Z,0.28
2022-08-16T20:39:18.503Z,0.27
2022-08-16T20:42:18.439Z,0.27
2022-08-16T20:45:18.420Z,0.24
2022-08-16T20:48:19.338Z,0.33
2022-08-16T20:51:18.595Z,0.26
2022-08-16T20:54:18.645Z,0.33
2022-08-16T20:57:21.277Z,0.29
2022-08-16T21:00:18.626Z,0.24
2022-08-16T21:03:18.675Z,0.27
2022-08-16T21:06:18.613Z,0.24
2022-08-16T21:09:18.598Z,0.23
2022-08-16T21:12:18.588Z,0.18
2022-08-16T21:15:18.454Z,0.18
2022-08-16T21:18:18.459Z,0.23
2022-08-16T21:21:18.546Z,0.32
2022-08-16T21:24:18.457Z,0.27
2022-08-16T21:27:18.446Z,0.24
2022-08-16T21:30:18.473Z,0.17
2022-08-16T21:33:18.414Z,0.23
2022-08-16T21:36:18.469Z,0.17
2022-08-16T21:39:18.470Z,0.01
2022-08-16T21:42:18.521Z,0.13
2022-08-16T21:45:18.474Z,0.11
2022-08-16T21:48:18.459Z,0.15
2022-08-16T21:51:18.536Z,0.13
2022-08-16T21:54:18.480Z,0.15
2022-08-16T21:57:18.570Z,0.03
2022-08-16T22:00:18.516Z,0
2022-08-16T22:03:18.525Z,0
2022-08-16T22:06:18.488Z,0
2022-08-16T22:09:18.464Z,0.06
2022-08-16T22:12:21.415Z,0.21
2022-08-16T22:15:22.123Z,0.22
2022-08-16T22:18:18.531Z,0.29
2022-08-16T22:21:18.514Z,0.29
2022-08-16T22:24:18.488Z,0.26
2022-08-16T22:27:18.523Z,0.31
2022-08-16T22:30:18.504Z,0.18
2022-08-16T22:33:18.525Z,0.2
2022-08-16T22:36:18.529Z,0.07
2022-08-16T22:39:18.620Z,0.03
2022-08-16T22:42:18.514Z,0.06
2022-08-16T22:45:18.529Z,0.01
2022-08-16T22:48:18.527Z,0
2022-08-16T22:51:18.536Z,0.21
2022-08-16T22:54:34.423Z,0.3
2022-08-16T22:57:18.549Z,0.21
2022-08-16T23:00:18.559Z,0.18
2022-08-16T23:03:18.553Z,0.13
2022-08-16T23:06:18.538Z,0.06
2022-08-16T23:09:18.558Z,0.17
2022-08-16T23:12:18.601Z,0.32
2022-08-16T23:15:18.568Z,0.25
2022-08-16T23:18:19.418Z,0.24
2022-08-16T23:21:18.579Z,0.18
2022-08-16T23:24:18.568Z,0.14
2022-08-16T23:27:18.520Z,0.14
2022-08-16T23:30:18.568Z,0.11
2022-08-16T23:33:18.574Z,0.02
2022-08-16T23:36:18.593Z,0
2022-08-16T23:39:18.605Z,0.01
2022-08-16T23:42:42.078Z,0.08
2022-08-16T23:45:18.549Z,0.19
2022-08-16T23:48:18.580Z,0.28
2022-08-16T23:51:18.590Z,0.05
2022-08-16T23:54:18.598Z,0.06
2022-08-16T23:57:18.604Z,0
